createdAt,value
2018-03-30T00:02:19.218Z,69.70
2018-03-30T00:04:46.187Z,69.40
2018-03-30T00:07:12.458Z,69.40
2018-03-30T00:09:51.150Z,69.40
2018-03-30T00:12:17.432Z,69.20
2018-03-30T00:14:43.669Z,69.30
2018-03-30T00:17:10.647Z,69.00
2018-03-30T00:19:37.146Z,68.90
2018-03-30T00:22:03.428Z,68.50
2018-03-30T00:24:29.767Z,69.00
2018-03-30T00:26:56.020Z,68.30
2018-03-30T00:29:22.254Z,68.10
2018-03-30T00:31:48.481Z,67.50
2018-03-30T00:34:14.723Z,68.10
2018-03-30T00:36:40.961Z,67.40
2018-03-30T00:39:07.215Z,67.30
2018-03-30T00:41:33.432Z,67.50
2018-03-30T00:43:59.682Z,67.20
2018-03-30T00:46:26.660Z,67.20
2018-03-30T00:48:52.904Z,67.20
2018-03-30T00:51:19.134Z,67.70
2018-03-30T00:53:46.314Z,67.30
2018-03-30T00:56:13.307Z,67.80
2018-03-30T00:58:39.564Z,67.80
2018-03-30T01:01:05.842Z,67.80
2018-03-30T01:03:32.116Z,67.70
2018-03-30T01:05:58.623Z,67.90
2018-03-30T01:08:25.619Z,68.10
2018-03-30T01:10:51.854Z,68.10
2018-03-30T01:13:18.086Z,68.10
2018-03-30T01:15:44.460Z,68.40
2018-03-30T01:18:11.427Z,69.50
2018-03-30T01:20:37.688Z,69.50
2018-03-30T01:23:03.926Z,69.90
2018-03-30T01:25:30.222Z,69.60
2018-03-30T01:27:56.460Z,69.60
2018-03-30T01:30:22.843Z,69.70
2018-03-30T01:32:49.287Z,69.60
2018-03-30T01:35:15.575Z,69.80
2018-03-30T01:37:41.795Z,69.80
2018-03-30T01:40:08.061Z,70.00
2018-03-30T01:42:34.291Z,69.90
2018-03-30T01:45:00.613Z,69.70
2018-03-30T01:47:26.847Z,69.60
2018-03-30T01:49:53.120Z,69.80
2018-03-30T01:52:19.395Z,69.90
2018-03-30T01:54:45.686Z,69.90
2018-03-30T01:57:11.983Z,70.20
2018-03-30T01:59:38.566Z,70.30
2018-03-30T02:02:04.795Z,70.10
2018-03-30T02:04:31.098Z,69.80
2018-03-30T02:06:57.361Z,69.60
2018-03-30T02:09:25.126Z,69.30
2018-03-30T02:11:53.139Z,69.40
2018-03-30T02:14:19.375Z,69.40
2018-03-30T02:16:45.950Z,69.20
2018-03-30T02:19:12.200Z,69.00
2018-03-30T02:21:38.459Z,69.10
2018-03-30T02:24:04.743Z,69.40
2018-03-30T02:26:30.955Z,69.10
2018-03-30T02:28:57.184Z,69.70
2018-03-30T02:31:23.636Z,69.80
2018-03-30T02:33:49.866Z,70.10
2018-03-30T02:36:16.189Z,69.90
2018-03-30T02:38:42.622Z,69.70
2018-03-30T02:44:02.686Z,69.90
2018-03-30T02:46:28.977Z,69.90
2018-03-30T02:48:55.239Z,70.10
2018-03-30T02:51:21.488Z,70.20
2018-03-30T02:53:47.731Z,70.00
2018-03-30T02:56:14.090Z,69.80
2018-03-30T02:58:40.327Z,69.80
2018-03-30T03:01:07.312Z,70.60
2018-03-30T03:03:33.563Z,71.10
2018-03-30T03:05:59.891Z,70.40
2018-03-30T03:08:26.148Z,70.80
2018-03-30T03:10:52.618Z,71.10
2018-03-30T03:13:18.868Z,71.10
2018-03-30T03:15:45.084Z,70.90
2018-03-30T03:18:11.312Z,70.80
2018-03-30T03:20:37.551Z,70.60
2018-03-30T03:23:03.859Z,70.40
2018-03-30T03:25:30.096Z,70.90
2018-03-30T03:27:56.347Z,70.80
2018-03-30T03:30:22.608Z,71.00
2018-03-30T03:32:48.899Z,70.90
2018-03-30T03:35:15.862Z,70.80
2018-03-30T03:37:42.152Z,70.70
2018-03-30T03:40:08.376Z,71.30
2018-03-30T03:42:34.644Z,71.30
2018-03-30T03:45:01.607Z,71.20
2018-03-30T03:47:27.895Z,71.20
2018-03-30T03:49:54.259Z,72.00
2018-03-30T03:52:20.519Z,72.20
2018-03-30T03:54:46.743Z,72.20
2018-03-30T03:57:12.971Z,72.20
2018-03-30T03:59:39.280Z,72.00
2018-03-30T04:02:05.835Z,71.90
2018-03-30T04:04:32.116Z,72.00
2018-03-30T04:06:58.354Z,72.20
2018-03-30T04:09:24.738Z,72.20
2018-03-30T04:11:50.981Z,71.80
2018-03-30T04:14:17.234Z,72.30
2018-03-30T04:16:43.476Z,72.50
2018-03-30T04:19:09.716Z,72.60
2018-03-30T04:21:35.958Z,71.90
2018-03-30T04:24:02.223Z,71.90
2018-03-30T04:26:28.483Z,72.00
2018-03-30T04:28:54.724Z,71.60
2018-03-30T04:31:21.120Z,71.30
2018-03-30T04:33:47.366Z,71.30
2018-03-30T04:36:13.602Z,71.10
2018-03-30T04:38:40.027Z,71.40
2018-03-30T04:41:08.235Z,71.10
2018-03-30T04:43:34.567Z,71.30
2018-03-30T04:46:00.943Z,71.30
2018-03-30T04:48:27.183Z,71.30
2018-03-30T04:50:53.592Z,72.00
2018-03-30T04:53:20.564Z,72.30
2018-03-30T04:55:46.804Z,72.30
2018-03-30T04:58:13.039Z,72.40
2018-03-30T05:00:39.356Z,72.40
2018-03-30T05:03:05.584Z,71.90
2018-03-30T05:05:31.969Z,71.70
2018-03-30T05:07:58.936Z,72.30
2018-03-30T05:10:25.919Z,72.30
2018-03-30T05:12:52.172Z,72.30
2018-03-30T05:15:18.434Z,72.00
2018-03-30T05:17:44.667Z,72.50
2018-03-30T05:20:11.707Z,72.70
2018-03-30T05:22:37.968Z,72.70
2018-03-30T05:25:04.987Z,73.20
2018-03-30T05:27:31.320Z,73.20
2018-03-30T05:29:57.567Z,73.20
2018-03-30T05:32:23.795Z,73.40
2018-03-30T05:34:50.032Z,73.50
2018-03-30T05:37:17.127Z,73.40
2018-03-30T05:39:43.433Z,73.50
2018-03-30T05:42:09.667Z,73.70
2018-03-30T05:44:35.922Z,73.70
2018-03-30T05:47:02.174Z,74.00
2018-03-30T05:49:28.408Z,73.70
2018-03-30T05:51:54.659Z,73.50
2018-03-30T05:54:20.899Z,74.20
2018-03-30T05:56:47.161Z,73.90
2018-03-30T05:59:13.416Z,73.80
2018-03-30T06:01:40.007Z,73.60
2018-03-30T06:04:06.254Z,73.90
2018-03-30T06:06:32.639Z,73.20
2018-03-30T06:08:58.891Z,73.30
2018-03-30T06:11:25.483Z,73.10
2018-03-30T06:13:51.714Z,73.10
2018-03-30T06:16:18.232Z,72.70
2018-03-30T06:18:44.463Z,73.00
2018-03-30T06:21:10.740Z,72.60
2018-03-30T06:23:36.978Z,72.80
2018-03-30T06:26:03.272Z,72.40
2018-03-30T06:28:29.527Z,72.80
2018-03-30T06:30:55.819Z,72.70
2018-03-30T06:33:24.178Z,72.30
2018-03-30T06:35:50.680Z,71.50
2018-03-30T06:38:16.980Z,72.00
2018-03-30T06:40:43.229Z,71.90
2018-03-30T06:43:11.596Z,71.30
2018-03-30T06:45:37.876Z,70.40
2018-03-30T06:48:04.188Z,69.90
2018-03-30T06:50:30.458Z,70.10
2018-03-30T06:52:56.831Z,69.40
2018-03-30T06:55:23.067Z,68.90
2018-03-30T06:57:50.169Z,68.70
2018-03-30T07:00:16.433Z,68.70
2018-03-30T07:02:43.444Z,67.40
2018-03-30T07:05:10.421Z,67.60
2018-03-30T07:07:36.708Z,67.50
2018-03-30T07:10:03.886Z,67.10
2018-03-30T07:12:31.105Z,67.10
2018-03-30T07:14:57.680Z,66.60
2018-03-30T07:17:24.025Z,66.70
2018-03-30T07:19:50.596Z,66.60
2018-03-30T07:22:16.840Z,66.30
2018-03-30T07:24:43.371Z,66.10
2018-03-30T07:27:09.631Z,65.90
2018-03-30T07:29:38.809Z,64.40
2018-03-30T07:32:05.044Z,64.40
2018-03-30T07:34:31.423Z,62.40
2018-03-30T07:36:57.655Z,62.70
2018-03-30T07:39:23.915Z,61.40
2018-03-30T07:41:50.155Z,60.70
2018-03-30T07:44:16.428Z,60.90
2018-03-30T07:46:42.696Z,59.90
2018-03-30T07:49:08.960Z,58.80
2018-03-30T07:51:35.207Z,58.60
2018-03-30T07:54:01.447Z,58.90
2018-03-30T07:56:27.700Z,58.20
2018-03-30T07:58:53.968Z,58.30
2018-03-30T08:01:20.227Z,58.00
2018-03-30T08:03:46.851Z,57.50
2018-03-30T08:06:13.105Z,57.50
2018-03-30T08:08:39.745Z,58.10
2018-03-30T08:11:06.779Z,57.10
2018-03-30T08:13:33.060Z,57.10
2018-03-30T08:15:59.312Z,56.80
2018-03-30T08:18:25.611Z,57.50
2018-03-30T08:20:51.859Z,57.00
2018-03-30T08:23:18.447Z,56.50
2018-03-30T08:25:44.803Z,55.00
2018-03-30T08:28:11.114Z,56.30
2018-03-30T08:30:37.392Z,54.50
2018-03-30T08:33:03.722Z,52.70
2018-03-30T08:35:29.985Z,53.10
2018-03-30T08:37:56.239Z,52.40
2018-03-30T08:40:22.494Z,52.70
2018-03-30T08:42:48.740Z,51.90
2018-03-30T08:45:15.013Z,52.70
2018-03-30T08:47:41.266Z,51.70
2018-03-30T08:50:07.593Z,52.30
2018-03-30T08:52:33.892Z,52.60
2018-03-30T08:55:00.227Z,53.00
2018-03-30T08:57:26.510Z,52.90
2018-03-30T08:59:52.755Z,52.10
2018-03-30T09:02:19.021Z,51.80
2018-03-30T09:04:45.287Z,51.30
2018-03-30T09:07:11.563Z,50.10
2018-03-30T09:09:37.799Z,52.10
2018-03-30T09:12:04.083Z,50.60
2018-03-30T09:14:30.381Z,50.00
2018-03-30T09:16:56.639Z,50.10
2018-03-30T09:19:23.123Z,51.10
2018-03-30T09:21:49.406Z,50.60
2018-03-30T09:24:15.960Z,50.20
2018-03-30T09:26:42.951Z,48.80
2018-03-30T09:29:09.224Z,48.70
2018-03-30T09:31:35.488Z,49.50
2018-03-30T09:34:02.452Z,50.90
2018-03-30T09:36:28.710Z,50.90
2018-03-30T09:38:55.055Z,50.80
2018-03-30T09:41:21.347Z,51.10
2018-03-30T09:43:47.711Z,50.30
2018-03-30T09:46:14.010Z,50.80
2018-03-30T09:48:40.279Z,50.30
2018-03-30T09:51:06.503Z,49.60
2018-03-30T09:53:32.852Z,50.20
2018-03-30T09:55:59.095Z,51.30
2018-03-30T09:58:25.442Z,48.50
2018-03-30T10:00:52.427Z,49.70
2018-03-30T10:03:18.755Z,49.70
2018-03-30T10:05:45.903Z,49.30
2018-03-30T10:08:13.254Z,49.80
2018-03-30T10:10:39.487Z,48.90
2018-03-30T10:13:05.719Z,48.60
2018-03-30T10:15:31.977Z,48.60
2018-03-30T10:17:58.347Z,49.80
2018-03-30T10:20:24.716Z,49.90
2018-03-30T10:22:50.982Z,49.40
2018-03-30T10:25:17.295Z,49.10
2018-03-30T10:27:43.546Z,50.40
2018-03-30T10:30:09.807Z,51.70
2018-03-30T10:32:36.082Z,49.10
2018-03-30T10:35:02.327Z,49.40
2018-03-30T10:37:28.588Z,49.80
2018-03-30T10:39:54.817Z,49.70
2018-03-30T10:42:21.035Z,49.10
2018-03-30T10:44:47.259Z,49.10
2018-03-30T10:47:28.557Z,49.70
2018-03-30T10:49:54.791Z,48.30
2018-03-30T10:52:21.021Z,47.50
2018-03-30T10:54:47.259Z,46.90
2018-03-30T10:57:13.474Z,47.60
2018-03-30T10:59:39.710Z,48.20
2018-03-30T11:02:05.975Z,47.80
2018-03-30T11:04:32.972Z,46.70
2018-03-30T11:06:59.190Z,46.70
2018-03-30T11:09:25.430Z,46.40
2018-03-30T11:11:51.773Z,45.20
2018-03-30T11:14:18.003Z,45.30
2018-03-30T11:16:44.231Z,44.00
2018-03-30T11:19:10.464Z,44.60
2018-03-30T11:21:36.710Z,45.30
2018-03-30T11:24:03.029Z,43.30
2018-03-30T11:26:29.256Z,42.50
2018-03-30T11:28:55.500Z,41.80
2018-03-30T11:31:21.764Z,42.70
2018-03-30T11:33:48.012Z,41.90
2018-03-30T11:36:14.487Z,41.60
2018-03-30T11:38:40.703Z,42.80
2018-03-30T11:41:06.950Z,43.10
2018-03-30T11:43:33.182Z,44.10
2018-03-30T11:45:59.848Z,45.60
2018-03-30T11:48:26.075Z,44.90
2018-03-30T11:50:53.054Z,44.50
2018-03-30T11:53:19.266Z,44.40
2018-03-30T11:55:45.591Z,44.40
2018-03-30T11:58:12.420Z,45.30
2018-03-30T12:00:38.749Z,46.70
2018-03-30T12:03:05.259Z,46.10
2018-03-30T12:05:31.502Z,45.70
2018-03-30T12:07:57.723Z,45.50
2018-03-30T12:10:23.994Z,46.90
2018-03-30T12:12:50.943Z,45.50
2018-03-30T12:15:17.196Z,45.50
2018-03-30T12:17:43.624Z,43.40
2018-03-30T12:20:09.875Z,44.30
2018-03-30T12:22:36.594Z,43.50
2018-03-30T12:25:03.963Z,43.60
2018-03-30T12:27:30.587Z,43.50
2018-03-30T12:29:56.819Z,43.70
2018-03-30T12:32:23.052Z,44.10
2018-03-30T12:34:49.271Z,43.00
2018-03-30T12:37:16.325Z,43.80
2018-03-30T12:39:42.638Z,43.40
2018-03-30T12:42:08.880Z,44.20
2018-03-30T12:44:35.165Z,44.10
2018-03-30T12:47:01.403Z,43.30
2018-03-30T12:49:27.648Z,43.50
2018-03-30T12:51:54.811Z,43.70
2018-03-30T12:54:21.051Z,43.30
2018-03-30T12:56:47.456Z,42.90
2018-03-30T12:59:13.686Z,42.90
2018-03-30T13:01:39.943Z,44.10
2018-03-30T13:04:06.183Z,43.70
2018-03-30T13:06:32.424Z,44.20
2018-03-30T13:08:59.387Z,44.40
2018-03-30T13:11:25.633Z,44.40
2018-03-30T13:13:51.934Z,44.70
2018-03-30T13:16:19.075Z,43.70
2018-03-30T13:18:45.291Z,43.70
2018-03-30T13:21:11.576Z,42.60
2018-03-30T13:23:37.828Z,43.90
2018-03-30T13:26:04.071Z,43.00
2018-03-30T13:28:30.363Z,43.30
2018-03-30T13:30:56.590Z,42.60
2018-03-30T13:33:22.903Z,42.20
2018-03-30T13:35:49.887Z,41.20
2018-03-30T13:38:16.138Z,41.20
2018-03-30T13:40:42.371Z,41.60
2018-03-30T13:43:08.657Z,41.70
2018-03-30T13:45:34.914Z,41.00
2018-03-30T13:48:01.181Z,41.90
2018-03-30T13:50:54.131Z,41.90
2018-03-30T13:53:21.219Z,41.30
2018-03-30T13:55:47.618Z,40.50
2018-03-30T13:58:21.883Z,40.20
2018-03-30T14:00:49.035Z,38.80
2018-03-30T14:03:35.191Z,39.10
2018-03-30T14:06:07.072Z,39.60
2018-03-30T14:08:39.415Z,39.70
2018-03-30T14:11:07.311Z,38.60
2018-03-30T14:13:33.650Z,38.10
2018-03-30T14:16:05.823Z,39.20
2018-03-30T14:18:37.580Z,40.90
2018-03-30T14:21:06.475Z,40.80
2018-03-30T14:26:33.918Z,41.40
2018-03-30T14:29:01.063Z,41.20
2018-03-30T14:31:35.071Z,40.40
2018-03-30T14:34:04.115Z,41.20
2018-03-30T14:36:35.307Z,41.50
2018-03-30T14:39:11.494Z,41.60
2018-03-30T14:41:37.758Z,42.40
2018-03-30T14:44:07.623Z,42.70
2018-03-30T14:46:39.999Z,42.60
2018-03-30T14:49:07.212Z,41.00
2018-03-30T14:51:41.189Z,41.30
2018-03-30T14:54:07.467Z,41.80
2018-03-30T14:56:45.539Z,41.60
2018-03-30T14:59:22.173Z,42.30
2018-03-30T15:01:51.119Z,42.50
2018-03-30T15:04:22.091Z,42.10
2018-03-30T15:07:05.027Z,42.40
2018-03-30T15:09:44.113Z,42.30
2018-03-30T15:12:29.702Z,41.20
2018-03-30T15:14:55.983Z,41.20
2018-03-30T15:17:38.118Z,42.00
2018-03-30T15:20:05.299Z,41.30
2018-03-30T15:22:37.132Z,42.20
2018-03-30T15:28:03.897Z,42.40
2018-03-30T15:30:31.120Z,42.70
2018-03-30T15:33:25.147Z,42.50
2018-03-30T15:35:59.147Z,42.30
2018-03-30T15:38:25.383Z,42.00
2018-03-30T15:40:51.632Z,42.90
2018-03-30T15:43:17.983Z,43.20
2018-03-30T15:45:56.398Z,42.80
2018-03-30T15:48:23.407Z,44.20
2018-03-30T15:50:50.595Z,44.20
2018-03-30T15:53:16.681Z,44.20
2018-03-30T15:55:42.932Z,43.90
2018-03-30T15:58:09.291Z,45.50
2018-03-30T16:00:35.625Z,43.40
2018-03-30T16:03:01.897Z,42.40
2018-03-30T16:05:28.152Z,41.30
2018-03-30T16:07:54.436Z,41.50
2018-03-30T16:10:22.654Z,42.00
2018-03-30T16:12:48.918Z,42.20
2018-03-30T16:15:15.974Z,44.50
2018-03-30T16:17:42.223Z,43.90
2018-03-30T16:20:08.281Z,45.10
2018-03-30T16:22:34.318Z,45.10
2018-03-30T16:25:00.399Z,45.60
2018-03-30T16:27:26.522Z,47.10
2018-03-30T16:29:52.574Z,46.90
2018-03-30T16:32:18.641Z,46.90
2018-03-30T16:34:46.124Z,46.70
2018-03-30T16:37:14.546Z,47.50
2018-03-30T16:39:41.631Z,48.10
2018-03-30T16:42:07.675Z,48.00
2018-03-30T16:44:33.738Z,48.10
2018-03-30T16:46:59.767Z,48.50
2018-03-30T16:49:25.791Z,48.40
2018-03-30T16:51:51.860Z,49.00
2018-03-30T16:54:18.574Z,49.40
2018-03-30T16:56:44.703Z,49.30
2018-03-30T16:59:10.809Z,49.50
2018-03-30T17:01:36.911Z,49.80
2018-03-30T17:04:02.990Z,50.80
2018-03-30T17:09:14.604Z,51.10
2018-03-30T17:11:40.696Z,51.30
2018-03-30T17:14:08.548Z,51.60
2018-03-30T17:16:35.483Z,52.20
2018-03-30T17:19:01.528Z,52.00
2018-03-30T17:21:28.017Z,52.00
2018-03-30T17:23:54.300Z,52.40
2018-03-30T17:26:20.350Z,52.20
2018-03-30T17:28:46.397Z,52.30
2018-03-30T17:31:12.457Z,53.80
2018-03-30T17:33:39.255Z,53.10
2018-03-30T17:36:05.334Z,53.10
2018-03-30T17:38:32.123Z,53.90
2018-03-30T17:40:58.239Z,53.90
2018-03-30T17:43:24.306Z,54.60
2018-03-30T17:45:50.367Z,54.50
2018-03-30T17:48:16.432Z,54.90
2018-03-30T17:50:43.223Z,55.60
2018-03-30T17:53:09.305Z,56.80
2018-03-30T17:55:41.972Z,57.80
2018-03-30T17:58:08.924Z,63.30
2018-03-30T18:00:35.060Z,63.20
2018-03-30T18:03:01.264Z,67.00
2018-03-30T18:05:34.195Z,68.10
2018-03-30T18:08:00.395Z,68.10
2018-03-30T18:10:26.443Z,67.60
2018-03-30T18:12:52.510Z,67.70
2018-03-30T18:15:19.291Z,67.20
2018-03-30T18:17:45.359Z,67.20
2018-03-30T18:20:13.020Z,68.00
2018-03-30T18:22:40.269Z,68.40
2018-03-30T18:25:06.761Z,68.30
2018-03-30T18:27:32.931Z,68.50
2018-03-30T18:29:58.973Z,69.00
2018-03-30T18:32:27.263Z,69.30
2018-03-30T18:34:53.496Z,68.50
2018-03-30T18:37:19.589Z,68.70
2018-03-30T18:39:46.392Z,68.50
2018-03-30T18:42:12.490Z,68.50
2018-03-30T18:44:39.342Z,68.40
2018-03-30T18:47:05.587Z,68.40
2018-03-30T18:49:31.667Z,68.00
2018-03-30T18:51:57.711Z,68.20
2018-03-30T18:54:23.771Z,68.30
2018-03-30T18:56:49.802Z,68.60
2018-03-30T18:59:15.870Z,69.30
2018-03-30T19:01:41.907Z,69.40
2018-03-30T19:04:07.964Z,69.40
2018-03-30T19:06:34.033Z,70.30
2018-03-30T19:09:00.140Z,69.50
2018-03-30T19:11:27.025Z,70.10
2018-03-30T19:13:53.542Z,70.00
2018-03-30T19:16:19.620Z,70.30
2018-03-30T19:18:45.676Z,70.40
2018-03-30T19:21:11.730Z,70.10
2018-03-30T19:23:37.787Z,70.30
2018-03-30T19:26:03.826Z,70.20
2018-03-30T19:28:29.900Z,70.70
2018-03-30T19:30:55.995Z,70.50
2018-03-30T19:33:22.127Z,70.70
2018-03-30T19:35:48.259Z,71.30
2018-03-30T19:38:14.303Z,71.90
2018-03-30T19:40:40.356Z,71.60
2018-03-30T19:43:06.405Z,73.20
2018-03-30T19:45:32.580Z,71.70
2018-03-30T19:47:59.000Z,72.80
2018-03-30T19:50:25.091Z,72.90
2018-03-30T19:52:51.147Z,73.20
2018-03-30T19:55:17.222Z,73.50
2018-03-30T19:57:43.292Z,74.00
2018-03-30T20:00:09.414Z,73.50
2018-03-30T20:02:35.476Z,72.70
2018-03-30T20:05:01.539Z,72.30
2018-03-30T20:07:27.583Z,72.10
2018-03-30T20:09:54.142Z,72.90
2018-03-30T20:12:20.191Z,72.50
2018-03-30T20:14:46.783Z,72.80
2018-03-30T20:17:12.822Z,72.90
2018-03-30T20:19:39.197Z,72.70
2018-03-30T20:22:05.251Z,72.70
2018-03-30T20:24:31.548Z,73.00
2018-03-30T20:26:57.610Z,73.10
2018-03-30T20:29:23.676Z,73.20
2018-03-30T20:31:49.725Z,73.60
2018-03-30T20:34:15.794Z,73.50
2018-03-30T20:36:41.855Z,73.30
2018-03-30T20:39:07.909Z,73.40
2018-03-30T20:41:33.980Z,73.30
2018-03-30T20:44:00.056Z,73.50
2018-03-30T20:46:26.148Z,73.70
2018-03-30T20:48:55.900Z,73.60
2018-03-30T20:51:23.532Z,73.60
2018-03-30T20:53:52.181Z,73.60
2018-03-30T20:56:18.739Z,73.90
2018-03-30T21:01:20.236Z,74.10
2018-03-30T21:03:47.386Z,75.20
2018-03-30T21:06:13.799Z,75.20
2018-03-30T21:08:40.579Z,75.10
2018-03-30T21:11:06.655Z,75.00
2018-03-30T21:13:32.709Z,75.00
2018-03-30T21:15:58.802Z,74.70
2018-03-30T21:18:24.860Z,74.80
2018-03-30T21:20:50.914Z,74.80
2018-03-30T21:23:17.107Z,75.10
2018-03-30T21:25:43.916Z,75.30
2018-03-30T21:28:09.947Z,75.30
2018-03-30T21:30:36.011Z,74.90
2018-03-30T21:33:02.056Z,74.40
2018-03-30T21:35:28.125Z,74.40
2018-03-30T21:37:54.179Z,74.60
2018-03-30T21:40:20.967Z,74.50
2018-03-30T21:42:47.047Z,74.50
2018-03-30T21:45:13.819Z,74.10
2018-03-30T21:47:40.426Z,74.10
2018-03-30T21:50:07.238Z,74.00
2018-03-30T21:52:33.292Z,74.00
2018-03-30T21:54:59.355Z,74.50
2018-03-30T21:57:25.609Z,74.50
2018-03-30T21:59:51.642Z,75.60
2018-03-30T22:02:17.699Z,75.30
2018-03-30T22:04:44.507Z,76.10
2018-03-30T22:07:11.632Z,76.00
2018-03-30T22:09:37.695Z,76.00
2018-03-30T22:12:03.762Z,76.30
2018-03-30T22:14:29.815Z,76.00
2018-03-30T22:16:55.898Z,76.50
2018-03-30T22:19:21.943Z,76.30
2018-03-30T22:21:48.019Z,76.10
2018-03-30T22:24:14.071Z,76.40
2018-03-30T22:26:46.949Z,76.50
2018-03-30T22:29:13.008Z,76.50
2018-03-30T22:31:39.070Z,76.70
2018-03-30T22:34:05.117Z,77.00
2018-03-30T22:36:31.167Z,77.20
2018-03-30T22:38:57.248Z,76.80
2018-03-30T22:41:23.295Z,77.10
2018-03-30T22:43:49.363Z,77.40
2018-03-30T22:46:16.387Z,77.90
2018-03-30T22:48:42.585Z,77.30
2018-03-30T22:51:08.663Z,77.30
2018-03-30T22:53:34.751Z,77.10
2018-03-30T22:56:00.796Z,77.50
2018-03-30T22:58:26.879Z,77.50
2018-03-30T23:00:52.931Z,77.20
2018-03-30T23:03:19.190Z,77.50
2018-03-30T23:05:45.237Z,77.40
2018-03-30T23:08:11.317Z,77.50
2018-03-30T23:10:37.358Z,77.20
2018-03-30T23:13:03.435Z,77.40
2018-03-30T23:15:29.479Z,77.50
2018-03-30T23:17:55.550Z,77.30
2018-03-30T23:20:22.335Z,77.00
2018-03-30T23:22:48.413Z,76.90
2018-03-30T23:25:14.452Z,77.20
2018-03-30T23:27:40.503Z,76.80
2018-03-30T23:30:06.596Z,76.90
2018-03-30T23:32:32.626Z,77.00
2018-03-30T23:34:58.692Z,77.30
2018-03-30T23:37:24.747Z,77.80
2018-03-30T23:39:50.820Z,77.50
2018-03-30T23:42:17.617Z,77.70
2018-03-30T23:44:43.683Z,77.60
2018-03-30T23:47:10.559Z,77.70
2018-03-30T23:49:36.630Z,77.60
2018-03-30T23:52:02.674Z,77.80
2018-03-30T23:54:28.970Z,77.80
2018-03-30T23:56:55.018Z,77.90
2018-03-30T23:59:21.106Z,78.00
